Time;durP1;ratioP1;P1;durP2;ratioP2;P2;SDS_P1;SDS_P2;PMS_P1;PMS_P2;Temp;Humidity;BMP_temperature;BMP_pressure;BME280_temperature;BME280_humidity;BME280_pressure;Samples;Min_cycle;Max_cycle;Signal;HPM_P1;HPM_P2
2022/01/03 16:15:51;;;;;;;9.90;3.00;;;;;;;9.80;68.97;100191.34;4434763;32;20109;-73
2022/01/03 16:18:18;;;;;;;7.57;2.90;;;;;;;9.84;68.96;100193.97;4435878;32;20115;-72
2022/01/03 16:20:45;;;;;;;6.65;2.78;;;;;;;9.87;68.80;100186.03;4436517;32;20093;-71
2022/01/03 16:23:13;;;;;;;6.90;3.40;;;;;;;9.74;69.26;100185.28;4422365;32;20171;-71
2022/01/03 16:25:40;;;;;;;8.38;2.83;;;;;;;9.70;69.28;100183.59;4436537;32;20632;-72
2022/01/03 16:28:07;;;;;;;7.05;2.40;;;;;;;9.67;69.32;100167.84;4436775;32;20155;-72
2022/01/03 16:30:34;;;;;;;9.10;3.20;;;;;;;9.72;69.04;100176.56;4436851;32;20455;-72
2022/01/03 16:33:03;;;;;;;6.18;2.62;;;;;;;9.72;69.24;100172.16;4436579;32;20093;-72
2022/01/03 16:35:30;;;;;;;10.23;2.85;;;;;;;9.65;69.48;100180.16;4436751;32;20159;-72
2022/01/03 16:37:57;;;;;;;5.00;2.42;;;;;;;9.62;69.62;100182.81;4436460;32;20085;-72
2022/01/03 16:40:24;;;;;;;6.95;2.28;;;;;;;9.60;69.79;100174.91;4436745;32;20437;-72
2022/01/03 16:42:52;;;;;;;9.50;3.37;;;;;;;9.72;69.16;100187.09;4436670;32;20409;-72
2022/01/03 16:45:19;;;;;;;12.75;3.42;;;;;;;9.77;68.90;100193.16;4436331;32;20143;-72
2022/01/03 16:47:47;;;;;;;6.20;1.87;;;;;;;9.76;69.10;100180.91;4436476;32;20845;-72
2022/01/03 16:50:15;;;;;;;4.57;1.60;;;;;;;9.73;69.16;100178.28;4436206;32;20440;-72
2022/01/03 16:52:42;;;;;;;3.33;1.77;;;;;;;9.65;69.32;100175.75;4436534;32;20109;-72
2022/01/03 16:55:10;;;;;;;5.22;1.45;;;;;;;9.66;69.40;100177.50;4436536;32;20141;-72
2022/01/03 16:57:37;;;;;;;4.07;1.80;;;;;;;9.69;69.14;100190.63;4436443;32;20081;-72
2022/01/03 17:00:05;;;;;;;2.78;1.40;;;;;;;9.64;69.50;100189.78;4436515;32;20149;-72
2022/01/03 17:02:33;;;;;;;3.45;1.52;;;;;;;9.68;69.11;100195.88;4436383;32;20798;-72
2022/01/03 17:05:01;;;;;;;5.62;2.05;;;;;;;9.65;69.35;100198.56;4436397;32;20144;-72
2022/01/03 17:07:28;;;;;;;6.62;2.25;;;;;;;9.63;69.38;100190.69;4435793;32;20393;-72
2022/01/03 17:09:56;;;;;;;6.20;2.25;;;;;;;9.59;69.72;100196.87;4435227;32;20157;-72
2022/01/03 17:12:23;;;;;;;7.72;3.15;;;;;;;9.60;69.62;100197.72;4434679;32;20093;-72
2022/01/03 17:14:51;;;;;;;11.80;2.95;;;;;;;9.48;70.28;100194.34;4435341;32;20123;-72
2022/01/03 17:17:18;;;;;;;9.10;2.78;;;;;;;9.39;70.71;100199.69;4435231;32;20108;-72
2022/01/03 17:19:50;;;;;;;9.10;2.47;;;;;;;9.26;71.26;100188.44;4435520;32;20783;-72
2022/01/03 17:22:18;;;;;;;9.25;2.90;;;;;;;9.29;71.40;100204.19;4435815;32;20093;-72
2022/01/03 17:24:45;;;;;;;5.45;2.90;;;;;;;9.32;71.34;100198.88;4436222;32;20092;-72
2022/01/03 17:27:13;;;;;;;8.52;2.45;;;;;;;9.45;70.89;100204.91;4435822;32;20103;-72
2022/01/03 17:29:42;;;;;;;7.68;2.20;;;;;;;9.42;71.02;100204.91;4436144;32;20177;-72
2022/01/03 17:32:10;;;;;;;5.18;3.33;;;;;;;9.41;71.07;100215.47;4436155;32;20165;-72
2022/01/03 17:34:39;;;;;;;3.83;2.08;;;;;;;9.49;70.89;100214.50;4436193;32;20089;-72
2022/01/03 17:37:09;;;;;;;5.30;2.35;;;;;;;9.55;70.81;100211.81;4436171;32;20367;-72
2022/01/03 17:39:36;;;;;;;8.00;2.03;;;;;;;9.54;70.84;100204.81;4422124;32;20085;-72
2022/01/03 17:42:04;;;;;;;7.87;2.28;;;;;;;9.65;70.53;100202.06;4436036;32;20094;-72
2022/01/03 17:44:31;;;;;;;7.85;2.58;;;;;;;9.68;70.45;100203.78;4436027;32;20092;-72
2022/01/03 17:46:59;;;;;;;4.50;2.75;;;;;;;9.52;71.19;100200.44;4435925;32;20081;-72
2022/01/03 17:49:26;;;;;;;7.22;2.50;;;;;;;9.52;71.20;100205.72;4436120;32;20537;-72
2022/01/03 17:51:54;;;;;;;7.32;3.03;;;;;;;9.61;70.92;100207.34;4435929;32;20104;-72
2022/01/03 17:54:21;;;;;;;6.87;3.10;;;;;;;9.61;70.88;100212.63;4436047;32;20122;-72
2022/01/03 17:56:48;;;;;;;10.50;3.00;;;;;;;9.70;70.43;100210.75;4435915;32;20807;-72
2022/01/03 17:59:36;;;;;;;;;;;;;;;9.70;70.71;100208.12;4436321;32;20139;-73
2022/01/03 18:02:05;;;;;;;8.02;2.90;;;;;;;9.75;70.63;100208.06;4435919;32;20068;-73
2022/01/03 18:04:32;;;;;;;4.37;1.98;;;;;;;9.74;70.44;100207.19;4435865;32;20160;-72
2022/01/03 18:07:00;;;;;;;7.43;2.75;;;;;;;9.80;70.38;100201.88;4435859;32;20131;-73
2022/01/03 18:09:27;;;;;;;10.82;2.35;;;;;;;9.81;70.27;100206.25;4436044;32;20160;-73
2022/01/03 18:11:54;;;;;;;11.00;3.10;;;;;;;9.81;70.11;100210.66;4436166;32;20113;-73
2022/01/03 18:14:22;;;;;;;7.50;2.45;;;;;;;9.75;70.58;100210.69;4435834;32;20595;-72
2022/01/03 18:16:49;;;;;;;12.00;2.47;;;;;;;9.74;70.42;100214.22;4435661;32;20152;-72
2022/01/03 18:19:16;;;;;;;7.82;2.80;;;;;;;9.65;70.96;100211.72;4435885;32;20073;-73
2022/01/03 18:21:43;;;;;;;5.65;2.37;;;;;;;9.60;71.08;100211.75;4435634;32;20097;-73
2022/01/03 18:24:15;;;;;;;7.37;2.92;;;;;;;9.70;70.70;100209.91;4435705;32;20119;-73
2022/01/03 18:26:42;;;;;;;5.45;2.45;;;;;;;9.63;71.14;100224.00;4435548;32;20440;-73
2022/01/03 18:29:10;;;;;;;8.25;2.92;;;;;;;9.58;71.23;100222.31;4435098;32;20151;-73
2022/01/03 18:31:40;;;;;;;13.98;4.03;;;;;;;9.59;71.48;100217.91;4435711;32;20235;-73
2022/01/03 18:34:08;;;;;;;8.82;3.62;;;;;;;9.61;71.45;100220.50;4435599;32;20560;-73
2022/01/03 18:36:35;;;;;;;15.15;3.80;;;;;;;9.62;71.53;100222.28;4435609;32;20089;-73
2022/01/03 18:39:05;;;;;;;8.20;3.37;;;;;;;9.50;71.90;100218.84;4435518;32;20100;-73
2022/01/03 18:41:33;;;;;;;10.07;3.10;;;;;;;9.46;72.16;100217.16;4435464;32;20093;-73
2022/01/03 18:44:00;;;;;;;9.77;4.55;;;;;;;9.41;72.39;100216.34;4435416;32;20104;-73
2022/01/03 18:46:28;;;;;;;10.98;4.10;;;;;;;9.41;72.48;100212.84;4435283;32;20725;-73
2022/01/03 18:48:57;;;;;;;7.75;3.50;;;;;;;9.37;72.81;100224.28;4435468;32;20132;-73
2022/01/03 18:51:24;;;;;;;14.32;3.90;;;;;;;9.37;72.65;100219.87;4435320;32;20127;-73
2022/01/03 18:53:51;;;;;;;11.23;3.78;;;;;;;9.33;72.95;100226.94;4435434;32;20093;-73
2022/01/03 18:56:18;;;;;;;9.13;4.43;;;;;;;9.36;72.78;100236.53;4435250;32;20688;-73
2022/01/03 18:58:45;;;;;;;16.02;5.47;;;;;;;9.32;73.31;100240.06;4435270;32;20501;-73
2022/01/03 19:01:13;;;;;;;11.90;5.20;;;;;;;9.29;73.36;100237.47;4435205;32;20440;-73
2022/01/03 19:03:40;;;;;;;9.60;4.37;;;;;;;9.23;73.83;100248.06;4435247;32;20425;-73
2022/01/03 19:06:08;;;;;;;14.45;5.35;;;;;;;9.18;74.16;100258.59;4435267;32;20169;-73
2022/01/03 19:08:35;;;;;;;18.92;5.65;;;;;;;9.06;75.12;100259.56;4435097;32;20097;-73
2022/01/03 19:11:03;;;;;;;14.95;5.65;;;;;;;9.09;75.48;100256.94;4435027;32;20113;-73
2022/01/03 19:13:30;;;;;;;12.52;6.30;;;;;;;8.95;76.69;100261.41;4435098;32;20105;-73
2022/01/03 19:15:57;;;;;;;7.15;4.30;;;;;;;8.78;78.11;100273.78;4435231;32;20081;-73
2022/01/03 19:18:25;;;;;;;10.75;4.75;;;;;;;8.76;78.20;100265.03;4435218;32;20109;-73
2022/01/03 19:20:52;;;;;;;9.65;4.50;;;;;;;8.49;79.64;100263.47;4435049;32;20085;-73
2022/01/03 19:23:19;;;;;;;7.57;4.20;;;;;;;8.27;80.96;100262.62;4434951;32;20458;-73
2022/01/03 19:25:46;;;;;;;10.98;5.03;;;;;;;8.13;81.78;100265.34;4435050;32;20465;-73
2022/01/03 19:28:13;;;;;;;21.20;8.52;;;;;;;8.08;82.36;100259.22;4435054;32;20243;-73
2022/01/03 19:30:41;;;;;;;22.10;10.90;;;;;;;8.06;82.75;100250.50;4434861;32;20454;-73
2022/01/03 19:38:29;;;;;;;14.50;6.12;;;;;;;7.86;84.28;100237.44;4434991;32;20660;-73
2022/01/03 19:40:57;;;;;;;8.18;4.45;;;;;;;7.79;86.10;100230.47;4437322;32;20581;-73
2022/01/03 19:43:25;;;;;;;13.45;3.70;;;;;;;7.75;87.55;100218.25;4437232;32;20093;-73
2022/01/03 19:45:54;;;;;;;5.97;3.15;;;;;;;7.96;87.25;100212.06;4424681;32;20157;-73
2022/01/03 19:48:23;;;;;;;8.05;2.92;;;;;;;8.06;87.14;100209.41;4421560;32;20372;-73
2022/01/03 19:50:50;;;;;;;6.95;2.25;;;;;;;8.24;86.38;100197.94;4421756;32;20128;-73
2022/01/03 19:53:19;;;;;;;5.95;2.53;;;;;;;8.35;85.69;100195.25;4421848;32;20521;-73
2022/01/03 19:55:47;;;;;;;3.20;1.75;;;;;;;8.62;83.91;100194.22;4421741;32;20108;-72
2022/01/03 19:58:14;;;;;;;5.15;1.90;;;;;;;8.74;83.31;100199.38;4421642;32;20350;-72
2022/01/03 20:00:42;;;;;;;2.95;1.23;;;;;;;8.67;83.31;100202.94;4421635;32;20082;-72
2022/01/03 20:03:10;;;;;;;5.80;1.42;;;;;;;8.71;83.26;100198.53;4421655;32;20157;-72
2022/01/03 20:05:42;;;;;;;1.50;1.40;;;;;;;8.90;82.05;100202.75;4421700;32;20081;-72
2022/01/03 20:08:12;;;;;;;5.15;1.50;;;;;;;8.90;81.92;100200.13;4421940;32;20112;-73
2022/01/03 20:10:40;;;;;;;4.93;1.08;;;;;;;8.97;81.76;100203.59;4421788;32;20102;-73
2022/01/03 20:13:07;;;;;;;4.72;1.95;;;;;;;9.00;81.15;100208.81;4421862;32;20169;-72
2022/01/03 20:15:35;;;;;;;4.45;1.45;;;;;;;8.95;81.63;100216.75;4421414;32;20164;-72
2022/01/03 20:18:03;;;;;;;9.32;2.00;;;;;;;9.02;81.27;100209.69;4421566;32;20173;-72
2022/01/03 20:20:34;;;;;;;4.68;2.10;;;;;;;9.07;81.42;100218.38;4421482;32;20184;-72
2022/01/03 20:23:02;;;;;;;6.28;3.00;;;;;;;9.08;81.84;100225.38;4421744;32;20639;-72
2022/01/03 20:25:31;;;;;;;8.05;3.42;;;;;;;8.92;83.22;100229.91;4421453;32;20193;-73
2022/01/03 20:27:59;;;;;;;8.48;2.90;;;;;;;8.78;84.01;100227.37;4421338;32;20097;-72
2022/01/03 20:30:27;;;;;;;7.20;3.35;;;;;;;8.52;85.75;100230.19;4421457;32;20218;-73
2022/01/03 20:32:54;;;;;;;17.30;6.32;;;;;;;8.49;86.60;100222.31;4421415;32;20101;-73
2022/01/03 20:35:22;;;;;;;10.68;5.78;;;;;;;8.44;87.54;100226.72;4419623;32;20111;-71
2022/01/03 20:37:50;;;;;;;11.57;5.57;;;;;;;8.37;88.24;100214.47;4421365;32;20492;-71
2022/01/03 20:40:23;;;;;;;9.75;4.60;;;;;;;8.18;89.85;100220.72;4421396;32;20576;-71
2022/01/03 20:42:50;;;;;;;6.47;3.70;;;;;;;8.05;91.12;100214.63;4421363;32;20132;-71
2022/01/03 20:45:17;;;;;;;8.95;3.95;;;;;;;7.87;91.70;100215.56;4421308;32;20081;-72
2022/01/03 20:47:45;;;;;;;12.73;4.20;;;;;;;7.70;93.08;100214.75;4421127;32;20584;-72
2022/01/03 20:50:12;;;;;;;7.03;3.70;;;;;;;7.64;93.19;100218.28;4420743;32;20090;-71
2022/01/03 20:52:41;;;;;;;9.07;3.40;;;;;;;7.71;92.62;100217.41;4421057;32;20152;-71
2022/01/03 20:55:10;;;;;;;6.40;2.78;;;;;;;7.58;93.41;100218.28;4421132;32;20361;-71
2022/01/03 20:57:39;;;;;;;7.37;2.58;;;;;;;7.61;93.43;100210.41;4421135;32;20098;-71
2022/01/03 21:00:09;;;;;;;4.75;2.65;;;;;;;7.71;92.78;100208.66;4421154;32;20086;-71
2022/01/03 21:02:42;;;;;;;7.78;2.72;;;;;;;7.66;93.45;100204.28;4421237;32;20102;-71
2022/01/03 21:05:10;;;;;;;6.28;2.58;;;;;;;7.73;93.11;100199.87;4421206;32;20100;-71
2022/01/03 21:07:37;;;;;;;9.18;3.15;;;;;;;7.80;92.81;100198.12;4421074;32;20115;-72
2022/01/03 21:10:05;;;;;;;5.75;2.60;;;;;;;7.83;93.12;100206.84;4420971;32;20162;-72
2022/01/03 21:12:33;;;;;;;6.47;2.53;;;;;;;7.87;92.66;100216.44;4420973;32;20128;-71
2022/01/03 21:15:03;;;;;;;6.35;2.85;;;;;;;7.83;92.91;100219.09;4421098;32;20146;-71
2022/01/03 21:17:30;;;;;;;13.38;3.78;;;;;;;7.86;93.41;100224.34;4421157;32;20165;-71
2022/01/03 21:20:00;;;;;;;10.55;4.03;;;;;;;7.85;93.27;100219.97;4420903;32;20098;-71
2022/01/03 21:22:28;;;;;;;9.30;3.97;;;;;;;7.75;94.31;100218.25;4420906;32;20543;-72
2022/01/03 21:24:56;;;;;;;24.58;9.07;;;;;;;7.99;92.96;100228.66;4420895;32;20073;-71
2022/01/03 21:27:24;;;;;;;23.73;7.65;;;;;;;7.98;92.70;100223.41;4420769;32;20094;-72
2022/01/03 21:29:51;;;;;;;12.52;4.70;;;;;;;7.88;93.33;100219.97;4420804;32;20478;-72
2022/01/03 21:32:18;;;;;;;18.80;6.82;;;;;;;7.91;93.88;100219.94;4420880;32;20105;-72
2022/01/03 21:34:45;;;;;;;9.63;4.30;;;;;;;8.04;93.76;100224.25;4420945;32;20074;-72
2022/01/03 21:37:12;;;;;;;9.23;3.20;;;;;;;7.99;94.36;100223.41;4420847;32;20109;-72
2022/01/03 21:39:40;;;;;;;55.95;16.70;;;;;;;8.13;92.83;100223.37;4420739;32;20128;-72
2022/01/03 21:42:07;;;;;;;60.83;18.42;;;;;;;8.29;91.54;100198.75;4420700;32;20184;-71
2022/01/03 21:44:35;;;;;;;9.25;2.37;;;;;;;8.56;88.96;100194.28;4420943;32;20605;-71
2022/01/03 21:47:03;;;;;;;6.68;2.08;;;;;;;8.60;88.68;100201.25;4420740;32;20117;-71
2022/01/03 21:49:30;;;;;;;7.55;1.80;;;;;;;8.51;87.90;100191.66;4420658;32;20120;-71
2022/01/03 21:51:58;;;;;;;5.20;1.70;;;;;;;8.63;86.43;100171.47;4420720;32;20093;-71
2022/01/03 21:54:25;;;;;;;3.90;1.15;;;;;;;8.64;86.92;100171.44;4420649;32;20150;-72
2022/01/03 21:56:55;;;;;;;4.47;2.30;;;;;;;8.77;85.88;100172.22;4420762;32;20422;-71
2022/01/03 21:59:25;;;;;;;7.40;2.25;;;;;;;8.56;88.05;100163.63;4420577;32;20125;-72
2022/01/03 22:01:56;;;;;;;5.80;2.20;;;;;;;8.43;89.64;100156.72;4420078;32;20097;-71
2022/01/03 22:04:23;;;;;;;3.78;2.20;;;;;;;8.21;91.33;100157.72;4420108;32;20365;-71
2022/01/03 22:06:51;;;;;;;2.80;2.25;;;;;;;8.20;90.96;100148.06;4420488;32;20097;-72
2022/01/03 22:09:19;;;;;;;6.53;1.92;;;;;;;8.12;91.04;100150.75;4420606;32;20094;-71
2022/01/03 22:11:47;;;;;;;3.17;2.28;;;;;;;7.97;92.05;100141.19;4420429;32;20501;-72
2022/01/03 22:14:15;;;;;;;7.45;2.20;;;;;;;7.89;92.68;100138.63;4420213;32;20385;-72
2022/01/03 22:16:42;;;;;;;5.15;2.60;;;;;;;7.74;93.48;100136.09;4420448;32;20503;-72
2022/01/03 22:19:09;;;;;;;4.20;2.10;;;;;;;7.77;92.98;100138.66;4420376;32;20149;-72
2022/01/03 22:21:36;;;;;;;5.72;2.47;;;;;;;7.91;92.26;100130.72;4420523;32;20109;-72
2022/01/03 22:24:04;;;;;;;6.45;2.80;;;;;;;7.63;93.26;100123.03;4420330;32;20081;-72
2022/01/03 22:26:31;;;;;;;6.53;2.60;;;;;;;7.47;94.96;100121.31;4420559;32;20406;-71
2022/01/03 22:28:58;;;;;;;10.45;2.65;;;;;;;7.98;92.33;100121.94;4417433;32;96981;-71
2022/01/03 22:31:25;;;;;;;7.43;2.90;;;;;;;7.69;92.94;100116.84;4420248;32;20835;-72
2022/01/03 22:33:54;;;;;;;5.53;2.80;;;;;;;7.55;94.20;100127.41;4420212;32;20119;-72
2022/01/03 22:36:21;;;;;;;6.72;2.40;;;;;;;7.69;94.24;100118.63;4420253;32;20097;-71
2022/01/03 22:38:49;;;;;;;12.20;2.72;;;;;;;7.82;93.15;100113.31;4420283;32;20494;-71
2022/01/03 22:41:17;;;;;;;4.43;2.47;;;;;;;7.79;92.81;100115.06;4420098;32;20172;-71
2022/01/03 22:43:44;;;;;;;9.40;3.25;;;;;;;7.55;94.04;100106.44;4420110;32;20104;-72
2022/01/03 22:46:13;;;;;;;8.40;2.70;;;;;;;7.56;94.32;100107.28;4420060;32;20098;-71
2022/01/03 22:48:41;;;;;;;5.20;2.47;;;;;;;7.58;93.72;100100.31;4419993;32;20128;-72
2022/01/03 22:51:08;;;;;;;7.60;2.62;;;;;;;7.52;94.09;100098.56;4420013;32;20223;-71
2022/01/03 22:53:36;;;;;;;8.65;3.22;;;;;;;7.56;94.09;100095.09;4420043;32;20078;-72
2022/01/03 22:56:03;;;;;;;7.37;3.37;;;;;;;7.52;93.71;100093.31;4419939;32;20553;-72
2022/01/03 22:58:30;;;;;;;7.93;3.37;;;;;;;7.39;94.32;100096.91;4419843;32;20094;-72
2022/01/03 23:00:58;;;;;;;9.77;3.83;;;;;;;7.48;93.07;100086.34;4419932;32;20503;-71
2022/01/03 23:03:25;;;;;;;14.68;4.57;;;;;;;7.39;93.08;100074.16;4420009;32;20090;-71
2022/01/03 23:05:52;;;;;;;11.77;5.15;;;;;;;7.21;92.92;100070.72;4419884;32;20081;-72
2022/01/03 23:08:20;;;;;;;12.52;5.47;;;;;;;7.06;92.65;100064.66;4419667;32;20117;-72
2022/01/03 23:10:47;;;;;;;10.57;5.45;;;;;;;6.98;92.99;100058.56;4419759;32;20152;-71
2022/01/03 23:13:14;;;;;;;14.55;6.25;;;;;;;7.01;92.62;100048.09;4419893;32;20089;-72
2022/01/03 23:15:41;;;;;;;13.48;6.32;;;;;;;6.93;92.70;100047.25;4421856;32;20082;-71
2022/01/03 23:18:09;;;;;;;12.13;6.95;;;;;;;6.91;92.33;100031.53;4422146;32;20652;-72
2022/01/03 23:20:36;;;;;;;11.48;6.10;;;;;;;6.78;92.86;100036.78;4422046;32;20819;-72
2022/01/03 23:23:03;;;;;;;12.35;7.18;;;;;;;6.86;92.60;100042.91;4422155;32;20118;-72
2022/01/03 23:25:30;;;;;;;13.25;6.72;;;;;;;6.74;92.84;100024.59;4422174;32;20113;-72
2022/01/03 23:27:58;;;;;;;17.73;7.50;;;;;;;6.71;92.84;100049.00;4421866;32;20467;-72
2022/01/03 23:30:25;;;;;;;12.52;7.22;;;;;;;6.76;92.58;100038.56;4421958;32;20464;-72
2022/01/03 23:32:54;;;;;;;20.75;9.23;;;;;;;6.57;93.14;100033.34;4422168;32;20487;-72
2022/01/03 23:35:21;;;;;;;16.90;9.00;;;;;;;6.49;93.52;100029.84;4421998;32;20505;-72
2022/01/03 23:37:49;;;;;;;14.85;8.63;;;;;;;6.64;92.51;100021.09;4421886;32;20452;-72
2022/01/03 23:40:17;;;;;;;19.80;9.85;;;;;;;6.56;93.03;100035.97;4421879;32;20117;-72
2022/01/03 23:42:45;;;;;;;18.05;10.57;;;;;;;6.56;92.56;100031.59;4421783;32;20136;-71
2022/01/03 23:45:24;;;;;;;19.87;10.13;;;;;;;6.46;93.25;100015.00;4421870;32;20090;-71
2022/01/03 23:47:52;;;;;;;21.42;10.43;;;;;;;6.48;93.00;100015.03;4421931;32;20149;-72
2022/01/03 23:50:19;;;;;;;18.33;10.55;;;;;;;6.45;92.78;100013.28;4421847;32;20132;-71
2022/01/03 23:52:48;;;;;;;19.77;10.77;;;;;;;6.55;92.67;100019.38;4421824;32;20082;-71
2022/01/03 23:55:15;;;;;;;21.30;10.90;;;;;;;6.57;92.34;100017.66;4421787;32;20123;-71
2022/01/03 23:57:43;;;;;;;21.90;11.30;;;;;;;6.57;92.33;100015.03;4421740;32;20090;-71
